Time;durP1;ratioP1;P1;durP2;ratioP2;P2;SDS_P1;SDS_P2;PMS_P1;PMS_P2;Temp;Humidity;BMP_temperature;BMP_pressure;BME280_temperature;BME280_humidity;BME280_pressure;Samples;Min_cycle;Max_cycle;Signal;HPM_P1;HPM_P2
2021/06/13 00:01:54;;;;;;;10.98;3.38;;;12.50;99.90;;;;;;6213208;23;20062;-81
2021/06/13 00:04:21;;;;;;;7.10;2.97;;;12.50;99.90;;;;;;6213160;23;20024;-81
2021/06/13 00:06:52;;;;;;;7.47;3.13;;;12.60;99.90;;;;;;6235079;23;20020;-81
2021/06/13 00:09:19;;;;;;;10.20;3.47;;;12.60;99.90;;;;;;6213750;23;20362;-80
2021/06/13 00:11:46;;;;;;;13.40;3.40;;;12.50;99.90;;;;;;6213287;23;20070;-81
2021/06/13 00:14:13;;;;;;;12.32;3.63;;;12.50;99.90;;;;;;6213628;23;20515;-81
2021/06/13 00:16:41;;;;;;;7.80;3.05;;;12.50;99.90;;;;;;6214074;23;20050;-81
2021/06/13 00:19:08;;;;;;;11.02;3.83;;;12.50;99.90;;;;;;6239521;23;20465;-80
2021/06/13 00:21:35;;;;;;;10.70;3.72;;;12.50;99.90;;;;;;6214580;23;20027;-80
2021/06/13 00:24:03;;;;;;;10.48;3.50;;;12.40;99.90;;;;;;6213216;23;20066;-81
2021/06/13 00:26:30;;;;;;;13.20;3.72;;;12.30;99.90;;;;;;6241526;23;20020;-81
2021/06/13 00:28:56;;;;;;;9.27;3.50;;;12.30;99.90;;;;;;6214868;23;20492;-79
2021/06/13 00:31:23;;;;;;;10.27;3.80;;;12.20;99.90;;;;;;6238939;23;20073;-81
2021/06/13 00:33:52;;;;;;;10.55;3.60;;;12.20;99.90;;;;;;6214707;23;20350;-80
2021/06/13 00:36:19;;;;;;;16.88;4.28;;;12.30;99.90;;;;;;6214460;23;20022;-79
2021/06/13 00:38:46;;;;;;;11.40;3.72;;;12.30;99.90;;;;;;6213554;23;20047;-81
2021/06/13 00:41:16;;;;;;;9.20;3.33;;;12.30;99.90;;;;;;6213037;23;20450;-80
2021/06/13 00:43:43;;;;;;;10.80;3.42;;;12.30;99.90;;;;;;6214218;23;20074;-80
2021/06/13 00:46:10;;;;;;;7.68;3.60;;;12.20;99.90;;;;;;6211698;23;20020;-80
2021/06/13 00:48:37;;;;;;;11.25;3.78;;;12.10;99.90;;;;;;6216722;23;20028;-81
2021/06/13 00:51:06;;;;;;;16.10;4.75;;;12.10;99.90;;;;;;6216296;23;20012;-81
2021/06/13 00:53:35;;;;;;;10.48;3.78;;;12.00;99.90;;;;;;6216905;23;20331;-79
2021/06/13 00:56:02;;;;;;;11.65;3.70;;;12.00;99.90;;;;;;6249747;23;20027;-79
2021/06/13 00:58:30;;;;;;;14.27;4.07;;;12.00;99.90;;;;;;6225648;23;20434;-79
2021/06/13 01:00:57;;;;;;;8.38;3.42;;;12.00;99.90;;;;;;6215539;23;20024;-79
2021/06/13 01:03:23;;;;;;;12.27;3.85;;;12.10;99.90;;;;;;6215742;23;20397;-80
2021/06/13 01:05:50;;;;;;;10.90;4.10;;;12.00;99.90;;;;;;6215735;23;20073;-80
2021/06/13 01:08:27;;;;;;;10.20;3.90;;;12.00;99.90;;;;;;6216394;23;20070;-80
2021/06/13 01:11:04;;;;;;;9.43;3.55;;;12.00;99.90;;;;;;6253519;23;20100;-79
2021/06/13 01:13:39;;;;;;;12.32;3.70;;;11.90;99.90;;;;;;6210549;23;20258;-81
2021/06/13 01:16:11;;;;;;;14.77;4.03;;;11.80;99.90;;;;;;6215052;23;20077;-79
2021/06/13 01:18:44;;;;;;;9.95;3.83;;;11.70;99.90;;;;;;6215319;23;20016;-79
2021/06/13 01:21:15;;;;;;;11.65;4.03;;;11.70;99.90;;;;;;6243291;23;20058;-78
2021/06/13 01:24:07;;;;;;;11.35;3.60;;;11.70;99.90;;;;;;6215596;23;20012;-79
2021/06/13 01:27:01;;;;;;;13.68;3.63;;;11.70;99.90;;;;;;6216593;23;20020;-81
2021/06/13 01:29:33;;;;;;;9.23;3.67;;;11.70;99.90;;;;;;6213646;23;20020;-82
2021/06/13 01:32:04;;;;;;;12.75;3.90;;;11.60;99.90;;;;;;6239356;23;20028;-80
2021/06/13 01:34:35;;;;;;;12.63;4.30;;;11.60;99.90;;;;;;6227069;23;20023;-80
2021/06/13 01:37:05;;;;;;;10.88;4.03;;;11.60;99.90;;;;;;6216598;23;20012;-81
2021/06/13 01:39:33;;;;;;;9.07;3.92;;;11.60;99.90;;;;;;6242256;23;20016;-81
2021/06/13 01:42:01;;;;;;;10.85;3.88;;;11.60;99.90;;;;;;6242691;23;20074;-80
2021/06/13 01:44:31;;;;;;;12.63;4.05;;;11.70;99.90;;;;;;6225579;23;20020;-80
2021/06/13 01:47:00;;;;;;;14.60;4.20;;;11.60;99.90;;;;;;6219428;23;20024;-81
2021/06/13 01:49:29;;;;;;;9.27;4.15;;;11.50;99.90;;;;;;6216610;23;20268;-81
2021/06/13 01:51:56;;;;;;;13.38;4.32;;;11.50;99.90;;;;;;6213122;23;20016;-80
2021/06/13 01:54:25;;;;;;;12.77;3.88;;;11.50;99.90;;;;;;6214656;23;20066;-79
2021/06/13 01:56:53;;;;;;;7.63;3.75;;;11.60;99.90;;;;;;6241701;23;20020;-79
2021/06/13 01:59:23;;;;;;;8.77;3.92;;;11.60;99.90;;;;;;6240631;23;20024;-79
2021/06/13 02:01:55;;;;;;;11.85;4.40;;;11.60;99.90;;;;;;6240451;23;20090;-81
2021/06/13 02:04:24;;;;;;;12.77;3.85;;;11.50;99.90;;;;;;6216377;23;20095;-78
2021/06/13 02:06:53;;;;;;;8.70;3.75;;;11.40;99.90;;;;;;6242649;23;20385;-82
2021/06/13 02:09:21;;;;;;;8.82;3.08;;;11.30;99.90;;;;;;6215444;23;20081;-81
2021/06/13 02:11:49;;;;;;;9.82;3.50;;;11.20;99.90;;;;;;6214264;23;20090;-81
2021/06/13 02:14:19;;;;;;;12.20;3.85;;;11.20;99.90;;;;;;6213468;23;20016;-80
2021/06/13 02:16:46;;;;;;;13.65;4.35;;;11.30;99.90;;;;;;6214792;23;20020;-80
2021/06/13 02:19:18;;;;;;;12.00;4.30;;;11.20;99.90;;;;;;6215286;23;20066;-81
2021/06/13 02:21:47;;;;;;;9.25;3.70;;;11.20;99.90;;;;;;6216577;23;20016;-81
2021/06/13 02:24:16;;;;;;;9.40;2.90;;;11.20;99.90;;;;;;6223977;23;20082;-80
2021/06/13 02:26:43;;;;;;;14.20;4.28;;;11.20;99.90;;;;;;6216257;23;20024;-81
2021/06/13 02:29:11;;;;;;;8.98;3.67;;;11.20;99.90;;;;;;6240713;23;20062;-81
2021/06/13 02:31:42;;;;;;;12.98;4.18;;;11.20;99.90;;;;;;6252683;23;20012;-81
2021/06/13 02:34:09;;;;;;;13.15;3.90;;;11.10;99.90;;;;;;6213382;23;20012;-80
2021/06/13 02:36:38;;;;;;;14.60;4.00;;;11.10;99.90;;;;;;6252826;23;20413;-80
2021/06/13 02:39:07;;;;;;;10.95;3.85;;;11.10;99.90;;;;;;6224649;23;20066;-80
2021/06/13 02:41:35;;;;;;;9.80;3.67;;;11.00;99.90;;;;;;6240263;23;20020;-80
2021/06/13 02:44:01;;;;;;;10.73;3.85;;;11.00;99.90;;;;;;6214620;23;20081;-79
2021/06/13 02:46:29;;;;;;;15.77;4.13;;;11.00;99.90;;;;;;6225351;23;20012;-79
2021/06/13 02:48:55;;;;;;;8.70;3.80;;;10.90;99.90;;;;;;6250466;23;20388;-79
2021/06/13 02:51:28;;;;;;;8.95;4.03;;;10.90;99.90;;;;;;6216126;23;20381;-79
2021/06/13 02:53:57;;;;;;;10.35;3.92;;;10.90;99.90;;;;;;6213081;23;20074;-80
2021/06/13 02:56:31;;;;;;;12.77;4.57;;;10.90;99.90;;;;;;6242117;23;20067;-79
2021/06/13 02:59:06;;;;;;;13.02;3.60;;;10.90;99.90;;;;;;6241445;23;20016;-80
2021/06/13 03:01:33;;;;;;;10.07;4.38;;;10.90;99.90;;;;;;6215831;23;20020;-79
2021/06/13 03:04:01;;;;;;;12.00;3.95;;;10.90;99.90;;;;;;6241651;23;20020;-81
2021/06/13 03:06:30;;;;;;;14.23;4.03;;;10.90;99.90;;;;;;6242357;23;20016;-80
2021/06/13 03:08:59;;;;;;;13.05;4.88;;;10.80;99.90;;;;;;6214793;23;20055;-81
2021/06/13 03:11:27;;;;;;;12.02;3.78;;;10.80;99.90;;;;;;6240527;23;20650;-81
2021/06/13 03:13:55;;;;;;;16.30;4.53;;;10.80;99.90;;;;;;6259966;22;20004;-78
2021/06/13 03:16:23;;;;;;;13.35;4.20;;;10.70;99.90;;;;;;6273474;22;20053;-83
2021/06/13 03:18:51;;;;;;;12.60;4.50;;;10.70;99.90;;;;;;6275851;22;20135;-80
2021/06/13 03:21:18;;;;;;;10.63;4.30;;;10.70;99.90;;;;;;6276407;22;20022;-79
2021/06/13 03:23:47;;;;;;;13.35;4.28;;;10.70;99.90;;;;;;6274535;22;20016;-81
2021/06/13 03:26:16;;;;;;;10.77;4.30;;;10.70;99.90;;;;;;6301857;22;20056;-78
2021/06/13 03:28:46;;;;;;;10.75;4.57;;;10.70;99.90;;;;;;6300806;22;20010;-79
2021/06/13 03:31:14;;;;;;;12.52;4.07;;;10.60;99.90;;;;;;6275751;22;20038;-80
2021/06/13 03:33:42;;;;;;;20.27;4.40;;;10.60;99.90;;;;;;6299463;22;20003;-80
2021/06/13 03:36:10;;;;;;;15.52;4.97;;;10.60;99.90;;;;;;6300358;22;20030;-80
2021/06/13 03:38:37;;;;;;;8.77;4.18;;;10.60;99.90;;;;;;6299655;22;20000;-79
2021/06/13 03:41:06;;;;;;;11.10;4.35;;;10.60;99.90;;;;;;6300373;22;20030;-82
2021/06/13 03:43:35;;;;;;;15.10;4.80;;;10.70;99.90;;;;;;6301086;22;20010;-79
2021/06/13 03:46:02;;;;;;;13.68;4.38;;;10.70;99.90;;;;;;6300927;22;20007;-81
2021/06/13 03:48:32;;;;;;;13.40;4.90;;;10.70;99.90;;;;;;6300535;22;20020;-81
2021/06/13 03:50:59;;;;;;;15.27;4.93;;;10.70;99.90;;;;;;6274634;22;20003;-80
2021/06/13 03:53:26;;;;;;;11.68;4.30;;;10.70;99.90;;;;;;6301540;22;20003;-80
2021/06/13 03:55:54;;;;;;;18.80;5.20;;;10.70;99.90;;;;;;6298662;22;20026;-78
2021/06/13 03:58:25;;;;;;;15.63;4.85;;;10.70;99.90;;;;;;6275990;22;20004;-80
2021/06/13 04:00:55;;;;;;;15.30;4.60;;;10.70;99.90;;;;;;6298910;22;20007;-80
2021/06/13 04:03:24;;;;;;;13.20;4.45;;;10.60;99.90;;;;;;6301104;22;20004;-80
2021/06/13 04:05:51;;;;;;;14.68;4.63;;;10.70;99.90;;;;;;6300379;22;19996;-80
2021/06/13 04:08:20;;;;;;;12.57;4.80;;;10.70;99.90;;;;;;6298667;22;20000;-83
2021/06/13 04:10:51;;;;;;;15.30;5.05;;;10.70;99.90;;;;;;6299039;22;20290;-80
2021/06/13 04:13:19;;;;;;;8.10;4.70;;;10.70;99.90;;;;;;6298432;22;20003;-81
2021/06/13 04:15:46;;;;;;;16.15;4.95;;;10.70;99.90;;;;;;6299828;22;20015;-79
2021/06/13 04:18:15;;;;;;;12.48;4.40;;;10.70;99.90;;;;;;6301679;22;20004;-79
2021/06/13 04:20:44;;;;;;;14.38;5.13;;;10.80;99.90;;;;;;6299890;22;20053;-81
2021/06/13 04:23:13;;;;;;;20.40;5.00;;;10.80;99.90;;;;;;6301264;22;19996;-80
2021/06/13 04:25:41;;;;;;;12.60;4.95;;;10.90;99.90;;;;;;6274342;22;20012;-80
2021/06/13 04:28:11;;;;;;;12.10;4.95;;;10.90;99.90;;;;;;6275681;22;20000;-79
2021/06/13 04:30:38;;;;;;;14.75;4.53;;;11.00;99.90;;;;;;6299249;22;20003;-80
2021/06/13 04:33:05;;;;;;;11.45;4.60;;;11.20;99.90;;;;;;6274072;22;19995;-79
2021/06/13 04:35:33;;;;;;;15.43;5.18;;;11.90;99.90;;;;;;6299076;22;20006;-80
2021/06/13 04:38:00;;;;;;;15.77;5.15;;;11.10;99.90;;;;;;6299327;22;20049;-80
2021/06/13 04:40:27;;;;;;;12.63;5.00;;;11.10;99.90;;;;;;6300213;22;20004;-79
2021/06/13 04:42:54;;;;;;;15.10;5.25;;;11.10;99.90;;;;;;6300286;22;20004;-80
2021/06/13 04:45:21;;;;;;;12.75;4.80;;;11.10;99.90;;;;;;6299729;22;20012;-81
2021/06/13 04:47:48;;;;;;;10.57;4.82;;;11.20;99.90;;;;;;6300950;22;20050;-80
2021/06/13 04:50:15;;;;;;;12.35;4.72;;;11.20;99.90;;;;;;6300078;22;20006;-80
2021/06/13 04:52:44;;;;;;;11.93;4.50;;;11.30;99.90;;;;;;6301759;22;19996;-80
2021/06/13 04:55:31;;;;;;;15.77;5.38;;;11.30;99.90;;;;;;6274769;22;20016;-80
2021/06/13 04:58:19;;;;;;;12.52;4.75;;;11.30;99.90;;;;;;6274859;22;20000;-80
2021/06/13 05:00:45;;;;;;;11.68;4.47;;;11.30;99.90;;;;;;6300707;22;20000;-80
2021/06/13 05:03:12;;;;;;;13.30;5.07;;;11.40;99.90;;;;;;6301211;22;20023;-81
2021/06/13 05:05:39;;;;;;;11.30;4.47;;;11.50;99.90;;;;;;6297216;22;20004;-81
2021/06/13 05:08:12;;;;;;;13.02;4.95;;;11.50;99.90;;;;;;6299026;22;20010;-80
2021/06/13 05:10:39;;;;;;;15.82;5.40;;;11.60;99.90;;;;;;6300565;22;20000;-79
2021/06/13 05:13:13;;;;;;;12.02;5.10;;;11.60;99.90;;;;;;6299650;22;20000;-80
2021/06/13 05:15:40;;;;;;;11.55;4.90;;;11.70;99.90;;;;;;6299346;22;20008;-82
2021/06/13 05:18:08;;;;;;;12.93;4.97;;;11.70;99.90;;;;;;6299455;22;20003;-78
2021/06/13 05:20:39;;;;;;;16.15;4.97;;;12.00;99.90;;;;;;6300252;22;20006;-80
2021/06/13 05:23:06;;;;;;;13.13;5.10;;;11.80;99.90;;;;;;6298547;22;19996;-80
2021/06/13 05:25:36;;;;;;;12.07;4.78;;;11.80;99.90;;;;;;6309812;22;20004;-79
2021/06/13 05:28:05;;;;;;;12.38;4.80;;;11.90;99.90;;;;;;6299985;22;20034;-79
2021/06/13 05:30:34;;;;;;;10.50;4.50;;;11.90;99.90;;;;;;6300047;22;20007;-80
2021/06/13 05:33:01;;;;;;;11.50;4.97;;;12.00;99.90;;;;;;6300897;22;20008;-81
2021/06/13 05:35:28;;;;;;;12.50;5.38;;;12.00;99.90;;;;;;6301039;22;20011;-81
2021/06/13 05:37:55;;;;;;;16.98;5.05;;;12.00;99.90;;;;;;6302363;22;20055;-81
2021/06/13 05:40:24;;;;;;;13.38;5.07;;;12.10;99.90;;;;;;6301667;22;20008;-82
2021/06/13 05:42:52;;;;;;;16.65;4.88;;;12.10;99.90;;;;;;6302384;22;20012;-79
2021/06/13 05:45:21;;;;;;;12.15;4.50;;;13.50;99.90;;;;;;6301596;22;20017;-80
2021/06/13 05:47:48;;;;;;;12.68;4.85;;;12.30;99.90;;;;;;6299202;22;20004;-79
2021/06/13 05:50:15;;;;;;;12.65;4.82;;;12.30;99.90;;;;;;6300172;22;20015;-79
2021/06/13 05:52:43;;;;;;;13.10;4.80;;;12.30;99.90;;;;;;6301808;22;20019;-81
2021/06/13 05:55:12;;;;;;;11.32;4.53;;;12.30;99.90;;;;;;6302263;22;19999;-80
2021/06/13 05:57:40;;;;;;;11.73;3.55;;;12.40;99.90;;;;;;6302302;22;20003;-81
2021/06/13 06:00:10;;;;;;;9.93;4.40;;;12.60;99.90;;;;;;6299577;22;20042;-80
2021/06/13 06:02:38;;;;;;;13.43;4.15;;;12.60;99.90;;;;;;6276041;22;20003;-80
2021/06/13 06:05:06;;;;;;;10.73;4.07;;;12.70;99.90;;;;;;6302280;22;20003;-81
2021/06/13 06:07:33;;;;;;;10.57;4.07;;;12.70;99.90;;;;;;6299653;22;20086;-81
2021/06/13 06:10:00;;;;;;;11.20;3.67;;;12.80;99.90;;;;;;6302624;22;20004;-80
2021/06/13 06:12:27;;;;;;;11.52;3.85;;;12.80;99.90;;;;;;6299504;22;20008;-80
2021/06/13 06:14:53;;;;;;;13.30;4.50;;;12.80;99.90;;;;;;6301632;22;20010;-81
2021/06/13 06:17:22;;;;;;;14.93;4.18;;;12.90;99.90;;;;;;6301886;22;20004;-80
2021/06/13 06:19:49;;;;;;;10.00;4.00;;;12.90;99.90;;;;;;6277361;22;20063;-80
2021/06/13 06:22:16;;;;;;;11.52;3.97;;;12.90;99.90;;;;;;6276741;22;20000;-81
2021/06/13 06:24:43;;;;;;;11.50;4.13;;;12.90;99.90;;;;;;6299608;22;20000;-80
2021/06/13 06:27:10;;;;;;;8.95;4.25;;;12.90;99.90;;;;;;6302888;22;20010;-79
2021/06/13 06:29:37;;;;;;;9.07;3.90;;;12.90;99.90;;;;;;6302232;22;20046;-81
2021/06/13 06:32:05;;;;;;;8.40;3.15;;;13.00;99.90;;;;;;6302038;22;20133;-80
2021/06/13 06:34:33;;;;;;;9.38;3.33;;;13.10;99.90;;;;;;6302278;22;20016;-80
2021/06/13 06:37:00;;;;;;;14.65;3.58;;;13.10;99.90;;;;;;6301908;22;20019;-80
2021/06/13 06:39:27;;;;;;;7.97;3.58;;;13.30;99.90;;;;;;6302385;22;20008;-81
2021/06/13 06:41:53;;;;;;;12.15;3.88;;;13.40;99.90;;;;;;6301065;22;20003;-79
2021/06/13 06:44:20;;;;;;;10.10;3.42;;;13.40;99.90;;;;;;6300374;22;20003;-79
2021/06/13 06:46:47;;;;;;;11.98;4.13;;;13.60;99.90;;;;;;6301403;22;20011;-82
2021/06/13 06:49:14;;;;;;;13.82;4.07;;;13.60;99.90;;;;;;6301927;22;20003;-80
2021/06/13 06:51:42;;;;;;;12.32;3.78;;;14.00;99.90;;;;;;6301921;22;20011;-80
2021/06/13 06:54:09;;;;;;;10.68;3.63;;;13.70;99.90;;;;;;6275112;22;20007;-80
2021/06/13 06:56:36;;;;;;;11.25;3.30;;;13.80;99.90;;;;;;6301538;22;20016;-82
2021/06/13 06:59:03;;;;;;;9.88;3.55;;;13.70;99.90;;;;;;6299942;22;20006;-81
2021/06/13 07:01:30;;;;;;;9.05;3.10;;;13.70;99.90;;;;;;6311265;22;20004;-81
2021/06/13 07:03:57;;;;;;;10.32;2.95;;;13.90;99.90;;;;;;6301229;22;20010;-80
2021/06/13 07:06:24;;;;;;;6.88;2.80;;;13.90;99.90;;;;;;6301976;22;20061;-80
2021/06/13 07:08:52;;;;;;;10.80;2.90;;;13.90;99.90;;;;;;6301392;22;20023;-81
2021/06/13 07:11:19;;;;;;;10.02;2.88;;;14.00;99.90;;;;;;6298931;22;20012;-80
2021/06/13 07:13:46;;;;;;;7.82;2.88;;;14.10;99.90;;;;;;6274935;22;20057;-80
2021/06/13 07:16:13;;;;;;;6.43;2.50;;;14.20;99.90;;;;;;6298634;22;20008;-80
2021/06/13 07:18:39;;;;;;;8.77;2.58;;;14.20;99.90;;;;;;6301196;22;20063;-80
2021/06/13 07:21:06;;;;;;;9.50;2.72;;;14.10;99.90;;;;;;6301000;22;20004;-82
2021/06/13 07:23:34;;;;;;;11.48;2.95;;;15.70;99.90;;;;;;6299683;22;20010;-80
2021/06/13 07:26:03;;;;;;;9.13;2.80;;;14.10;99.90;;;;;;6301396;22;20063;-79
2021/06/13 07:28:32;;;;;;;7.00;2.40;;;15.40;99.90;;;;;;6299931;22;20020;-80
2021/06/13 07:31:00;;;;;;;10.73;2.72;;;14.30;99.90;;;;;;6300328;22;20060;-80
2021/06/13 07:33:27;;;;;;;5.85;2.50;;;14.30;99.90;;;;;;6301028;22;20000;-81
2021/06/13 07:35:54;;;;;;;6.05;2.58;;;14.30;99.90;;;;;;6300296;22;20046;-79
2021/06/13 07:38:21;;;;;;;10.23;2.70;;;14.20;99.90;;;;;;6300133;22;20026;-80
2021/06/13 07:40:49;;;;;;;6.20;2.50;;;14.30;99.90;;;;;;6275250;22;20033;-80
2021/06/13 07:43:19;;;;;;;;;;;14.40;99.90;;;;;;6300530;22;20007;-80
2021/06/13 07:45:46;;;;;;;15.30;2.75;;;14.40;99.90;;;;;;6323946;22;19914;-81
2021/06/13 07:48:14;;;;;;;9.90;2.75;;;14.40;99.90;;;;;;6312334;22;20328;-80
2021/06/13 07:50:42;;;;;;;5.03;2.22;;;14.40;99.90;;;;;;6299318;22;20023;-81
2021/06/13 07:53:10;;;;;;;8.68;2.63;;;14.60;99.90;;;;;;6300519;22;20025;-80
2021/06/13 07:55:37;;;;;;;12.02;3.10;;;14.80;99.90;;;;;;6296978;22;20007;-80
2021/06/13 07:58:04;;;;;;;8.30;2.53;;;15.00;99.90;;;;;;6299908;22;20019;-81
2021/06/13 08:00:33;;;;;;;6.45;2.40;;;15.10;99.90;;;;;;6297098;22;20031;-80
2021/06/13 08:03:00;;;;;;;7.30;2.20;;;15.10;99.90;;;;;;6300292;22;20030;-83
2021/06/13 08:05:28;;;;;;;6.10;1.90;;;15.40;99.10;;;;;;6296667;22;20004;-80
2021/06/13 08:07:57;;;;;;;8.38;2.10;;;15.30;98.30;;;;;;6299172;22;20016;-80
2021/06/13 08:10:25;;;;;;;6.72;2.38;;;15.20;97.90;;;;;;6300059;22;20042;-80
2021/06/13 08:12:52;;;;;;;11.85;2.97;;;15.30;99.30;;;;;;6301353;22;20025;-82
2021/06/13 08:15:20;;;;;;;7.22;2.70;;;15.30;99.90;;;;;;6299668;22;20000;-79
2021/06/13 08:17:49;;;;;;;9.20;2.80;;;15.20;99.90;;;;;;6297373;22;20041;-77
2021/06/13 08:20:17;;;;;;;6.07;2.05;;;15.20;99.90;;;;;;6298473;22;20012;-81
2021/06/13 08:22:44;;;;;;;10.00;2.88;;;15.30;99.90;;;;;;6296875;22;20008;-79
2021/06/13 08:25:13;;;;;;;8.85;2.58;;;15.30;99.90;;;;;;6282318;22;20007;-81
2021/06/13 08:27:41;;;;;;;9.65;2.55;;;15.40;99.90;;;;;;6272654;22;20000;-82
2021/06/13 08:30:10;;;;;;;6.72;2.42;;;15.50;99.80;;;;;;6300174;22;20004;-83
2021/06/13 08:32:37;;;;;;;8.13;2.88;;;15.50;99.90;;;;;;6299738;22;20011;-84
2021/06/13 08:35:07;;;;;;;5.60;2.33;;;15.40;99.90;;;;;;6296494;22;20006;-80
2021/06/13 08:37:34;;;;;;;;;;;15.40;99.90;;;;;;6298433;22;20022;-79
2021/06/13 08:40:02;;;;;;;6.97;2.30;;;15.40;99.90;;;;;;6323941;22;19929;-81
2021/06/13 08:42:29;;;;;;;7.13;2.60;;;15.40;99.90;;;;;;6298356;22;20663;-80
2021/06/13 08:44:56;;;;;;;7.35;2.45;;;15.50;99.90;;;;;;6298268;22;20066;-81
2021/06/13 08:47:24;;;;;;;10.77;2.65;;;15.60;99.80;;;;;;6299358;22;20016;-81
2021/06/13 08:49:51;;;;;;;8.60;2.85;;;15.60;99.90;;;;;;6299038;22;20004;-82
2021/06/13 08:52:19;;;;;;;10.20;2.78;;;15.80;99.90;;;;;;6308822;22;20006;-78
2021/06/13 08:54:47;;;;;;;8.13;2.35;;;15.90;99.90;;;;;;6292097;22;20007;-83
2021/06/13 08:57:15;;;;;;;11.38;2.60;;;16.00;99.80;;;;;;6295390;22;20046;-81
2021/06/13 08:59:43;;;;;;;10.10;3.00;;;16.00;99.90;;;;;;6291796;22;20030;-81
2021/06/13 09:02:10;;;;;;;5.13;2.33;;;16.00;99.90;;;;;;6267915;22;20034;-84
2021/06/13 09:04:37;;;;;;;7.05;2.40;;;16.40;99.90;;;;;;6294825;22;20020;-79
2021/06/13 09:07:12;;;;;;;5.60;2.20;;;15.90;98.80;;;;;;6298432;22;20045;-82
2021/06/13 09:09:41;;;;;;;6.13;2.17;;;16.10;98.50;;;;;;6299938;22;20023;-81
2021/06/13 09:12:10;;;;;;;9.00;2.50;;;15.90;98.50;;;;;;6299918;22;20019;-81
2021/06/13 09:14:39;;;;;;;6.93;2.43;;;15.90;98.40;;;;;;6298399;22;20008;-84
2021/06/13 09:17:14;;;;;;;6.68;2.10;;;16.10;98.60;;;;;;6298295;22;20731;-81
2021/06/13 09:20:08;;;;;;;5.65;2.38;;;16.10;98.20;;;;;;6299789;22;20022;-83
2021/06/13 09:22:36;;;;;;;6.20;2.35;;;16.20;97.70;;;;;;6297703;22;20030;-81
2021/06/13 09:25:09;;;;;;;5.70;2.15;;;16.40;97.10;;;;;;6298169;22;20050;-79
2021/06/13 09:27:37;;;;;;;5.22;2.20;;;16.30;98.10;;;;;;6296372;22;20038;-88
2021/06/13 09:30:06;;;;;;;4.97;2.25;;;16.30;97.20;;;;;;6296523;22;20028;-82
2021/06/13 09:33:03;;;;;;;6.05;2.33;;;16.30;97.40;;;;;;6273394;22;20046;-80
2021/06/13 09:35:31;;;;;;;9.25;2.58;;;16.60;96.90;;;;;;6268405;22;20033;-81
2021/06/13 09:38:14;;;;;;;7.72;2.53;;;16.70;97.90;;;;;;6292116;22;20027;-83
2021/06/13 09:40:45;;;;;;;8.13;2.53;;;16.70;97.00;;;;;;6294568;22;20023;-85
2021/06/13 09:43:15;;;;;;;5.63;2.17;;;16.90;97.00;;;;;;6295164;22;20023;-82
2021/06/13 09:45:51;;;;;;;6.13;2.60;;;16.90;97.40;;;;;;6299159;22;20070;-82
2021/06/13 09:48:18;;;;;;;5.32;2.10;;;16.70;97.00;;;;;;6300407;22;20003;-79
2021/06/13 09:50:47;;;;;;;8.93;2.42;;;16.70;97.10;;;;;;6299200;22;20023;-82
2021/06/13 09:53:26;;;;;;;5.68;2.47;;;16.70;96.80;;;;;;6294299;22;20038;-81
2021/06/13 09:56:07;;;;;;;8.60;2.55;;;16.90;97.50;;;;;;6294491;22;20016;-82
2021/06/13 09:58:35;;;;;;;4.95;2.15;;;17.20;96.10;;;;;;6294099;22;20457;-83
2021/06/13 10:01:06;;;;;;;10.45;2.53;;;17.20;96.20;;;;;;6297189;22;20087;-83
2021/06/13 10:03:36;;;;;;;8.68;2.38;;;17.10;97.60;;;;;;6299078;22;20016;-80
2021/06/13 10:06:05;;;;;;;12.90;2.20;;;17.10;96.40;;;;;;6299594;22;20020;-79
2021/06/13 10:08:32;;;;;;;8.02;2.30;;;17.00;97.10;;;;;;6293765;22;20042;-80
2021/06/13 10:11:02;;;;;;;7.45;2.17;;;17.00;96.70;;;;;;6293256;22;20023;-80
2021/06/13 10:13:51;;;;;;;6.88;2.47;;;17.00;97.20;;;;;;6294606;22;20355;-80
2021/06/13 10:16:23;;;;;;;6.63;2.20;;;16.90;96.20;;;;;;6298592;22;20038;-82
2021/06/13 10:18:52;;;;;;;8.90;2.33;;;18.80;96.60;;;;;;6298124;22;20020;-80
2021/06/13 10:21:19;;;;;;;7.22;2.40;;;17.10;96.60;;;;;;6297978;22;20015;-83
2021/06/13 10:23:47;;;;;;;7.95;2.47;;;17.20;97.40;;;;;;6296972;22;20490;-85
2021/06/13 10:26:15;;;;;;;9.43;2.65;;;17.40;96.80;;;;;;6295721;22;20011;-82
2021/06/13 10:28:42;;;;;;;6.45;2.38;;;17.60;97.10;;;;;;6286745;22;20026;-85
2021/06/13 10:31:09;;;;;;;6.38;2.20;;;17.80;97.00;;;;;;6279005;22;20023;-80
2021/06/13 10:33:37;;;;;;;7.30;2.13;;;17.80;96.10;;;;;;6299355;22;20020;-84
2021/06/13 10:36:04;;;;;;;6.20;2.30;;;17.90;97.20;;;;;;6291035;22;20030;-81
2021/06/13 10:38:31;;;;;;;5.40;2.30;;;17.80;95.00;;;;;;6293991;22;20023;-80
2021/06/13 10:40:59;;;;;;;6.10;2.33;;;17.70;95.70;;;;;;6297768;22;20007;-81
2021/06/13 10:43:29;;;;;;;9.98;2.67;;;17.50;95.70;;;;;;6296708;22;20135;-81
2021/06/13 10:46:04;;;;;;;9.60;2.53;;;17.60;96.20;;;;;;6295908;22;20480;-82
2021/06/13 10:48:37;;;;;;;7.18;2.28;;;17.60;95.00;;;;;;6290371;22;20027;-87
2021/06/13 10:51:39;;;;;;;5.18;1.90;;;18.00;94.60;;;;;;6297398;22;20016;-83
2021/06/13 10:54:27;;;;;;;7.93;2.55;;;18.10;95.30;;;;;;6254454;22;20011;-83
2021/06/13 10:57:15;;;;;;;11.55;2.58;;;17.90;95.10;;;;;;6270121;22;20003;-79
2021/06/13 10:59:45;;;;;;;6.10;2.40;;;17.70;95.00;;;;;;6293406;22;20112;-85
2021/06/13 11:02:14;;;;;;;5.53;2.28;;;17.80;95.10;;;;;;6291442;22;20020;-86
2021/06/13 11:04:42;;;;;;;6.13;2.50;;;17.90;96.10;;;;;;6291578;22;20476;-81
2021/06/13 11:07:10;;;;;;;7.35;2.30;;;17.90;95.00;;;;;;6291082;22;20042;-79
2021/06/13 11:10:14;;;;;;;7.35;2.17;;;17.90;95.10;;;;;;6289799;22;20019;-82
2021/06/13 11:12:46;;;;;;;8.68;2.30;;;18.00;95.30;;;;;;6282991;22;20025;-83
2021/06/13 11:15:18;;;;;;;7.15;2.17;;;18.00;94.90;;;;;;6286227;22;20020;-85
2021/06/13 11:17:56;;;;;;;8.63;2.40;;;18.10;95.80;;;;;;6283137;22;20027;-81
2021/06/13 11:20:36;;;;;;;7.93;2.42;;;18.30;96.50;;;;;;6283255;22;20020;-87
2021/06/13 11:23:05;;;;;;;8.38;2.80;;;18.40;94.90;;;;;;6284340;22;20089;-89
2021/06/13 11:25:37;;;;;;;6.55;2.15;;;18.20;94.00;;;;;;6301983;22;20011;-86
2021/06/13 11:28:08;;;;;;;6.40;1.90;;;18.00;94.60;;;;;;6291297;22;20030;-86
2021/06/13 11:30:40;;;;;;;7.07;2.45;;;18.10;94.70;;;;;;6288417;22;20367;-88
2021/06/13 11:33:08;;;;;;;8.85;2.60;;;18.10;94.00;;;;;;6292031;22;20020;-86
2021/06/13 11:35:37;;;;;;;5.35;1.90;;;18.20;94.30;;;;;;6289705;22;20073;-85
2021/06/13 11:38:24;;;;;;;9.68;2.42;;;18.80;94.30;;;;;;6288751;22;20050;-87
2021/06/13 11:40:53;;;;;;;8.73;2.67;;;18.30;94.10;;;;;;6286142;22;20019;-85
2021/06/13 11:43:22;;;;;;;6.97;2.15;;;18.50;94.20;;;;;;6283018;22;20030;-88
2021/06/13 11:45:56;;;;;;;8.27;2.58;;;18.40;94.70;;;;;;6285696;22;20183;-85
2021/06/13 11:48:24;;;;;;;6.82;2.50;;;18.70;95.40;;;;;;6288604;22;20016;-82
2021/06/13 11:51:03;;;;;;;6.35;2.53;;;18.70;94.00;;;;;;6286694;22;20077;-84
2021/06/13 11:53:54;;;;;;;8.02;2.70;;;18.80;95.20;;;;;;6283458;22;20024;-88
2021/06/13 11:56:43;;;;;;;5.97;2.63;;;18.80;94.50;;;;;;6258105;22;20019;-87
2021/06/13 11:59:14;;;;;;;6.95;2.05;;;18.90;94.60;;;;;;6285560;22;20090;-86
2021/06/13 12:01:46;;;;;;;6.38;2.45;;;18.80;94.40;;;;;;6287923;22;20054;-84
2021/06/13 12:04:15;;;;;;;10.25;2.42;;;19.00;94.20;;;;;;6289699;22;20027;-86
2021/06/13 12:06:43;;;;;;;6.28;2.30;;;18.80;94.00;;;;;;6286338;22;20290;-84
2021/06/13 12:09:12;;;;;;;8.45;2.72;;;18.70;94.30;;;;;;6284460;22;20449;-87
2021/06/13 12:11:42;;;;;;;4.65;2.10;;;18.90;94.20;;;;;;6287973;22;20395;-81
2021/06/13 12:14:18;;;;;;;6.95;2.45;;;18.90;94.40;;;;;;6285541;22;20023;-84
2021/06/13 12:16:46;;;;;;;8.23;2.58;;;18.90;93.10;;;;;;6257854;22;20016;-84
2021/06/13 12:19:14;;;;;;;7.22;2.42;;;19.00;93.50;;;;;;6283622;22;20026;-87
2021/06/13 12:21:41;;;;;;;7.18;2.20;;;18.90;93.40;;;;;;6282951;22;20078;-85
2021/06/13 12:24:21;;;;;;;7.85;2.58;;;19.00;94.30;;;;;;6284051;22;20436;-88
2021/06/13 12:29:37;;;;;;;7.20;2.53;;;19.00;92.90;;;;;;6277292;22;20051;-86
2021/06/13 12:32:14;;;;;;;5.07;2.78;;;19.00;93.80;;;;;;6277505;22;20081;-88
2021/06/13 12:34:41;;;;;;;7.65;2.50;;;19.10;94.40;;;;;;6271993;22;20020;-85
2021/06/13 12:37:15;;;;;;;6.68;2.60;;;19.30;96.20;;;;;;6246594;22;20095;-82
2021/06/13 12:39:53;;;;;;;7.35;2.45;;;19.50;93.90;;;;;;6245039;22;20023;-87
2021/06/13 12:42:20;;;;;;;7.50;2.30;;;19.60;95.20;;;;;;6274790;22;20016;-86
2021/06/13 12:44:47;;;;;;;6.93;2.47;;;19.70;93.50;;;;;;6279660;22;20035;-86
2021/06/13 12:47:17;;;;;;;8.60;2.67;;;19.50;93.00;;;;;;6281594;22;20058;-82
2021/06/13 12:49:44;;;;;;;;;;;19.40;92.20;;;;;;6288414;22;20020;-83
2021/06/13 12:52:13;;;;;;;6.20;2.47;;;19.30;93.60;;;;;;6304381;22;19923;-84
2021/06/13 12:54:40;;;;;;;7.25;2.65;;;19.40;92.10;;;;;;6281514;22;20019;-86
2021/06/13 12:57:08;;;;;;;8.98;2.80;;;19.80;94.00;;;;;;6280373;22;20066;-83
2021/06/13 12:59:36;;;;;;;6.03;2.10;;;19.40;93.90;;;;;;6282425;22;20019;-84